Time;durP1;ratioP1;P1;durP2;ratioP2;P2;SDS_P1;SDS_P2;PMS_P1;PMS_P2;Temp;Humidity;BMP_temperature;BMP_pressure;BME280_temperature;BME280_humidity;BME280_pressure;Samples;Min_cycle;Max_cycle;Signal;HPM_P1;HPM_P2
2023/10/31 00:00:11;;;;;;;1.57;1.30;;;17.70;99.90;;;;;;5026177;28;20172;-87
2023/10/31 00:02:38;;;;;;;1.43;1.30;;;17.70;99.90;;;;;;5011277;28;20170;-88
2023/10/31 00:05:04;;;;;;;1.77;1.50;;;17.60;99.90;;;;;;5007636;28;20173;-87
2023/10/31 00:07:30;;;;;;;2.03;1.50;;;17.70;99.90;;;;;;5013133;28;20267;-87
2023/10/31 00:09:55;;;;;;;2.17;1.57;;;17.70;99.90;;;;;;5005567;28;20182;-88
2023/10/31 00:12:21;;;;;;;1.80;1.33;;;17.70;99.90;;;;;;5015594;28;20174;-88
2023/10/31 00:14:47;;;;;;;1.53;1.43;;;17.70;99.90;;;;;;5024515;28;20218;-88
2023/10/31 00:17:12;;;;;;;1.90;1.40;;;17.70;99.90;;;;;;5034476;28;20172;-89
2023/10/31 00:19:38;;;;;;;1.40;1.30;;;17.70;99.90;;;;;;5006924;28;20166;-89
2023/10/31 00:22:05;;;;;;;1.60;1.50;;;17.70;99.90;;;;;;4995406;28;20166;-88
2023/10/31 00:24:32;;;;;;;1.77;1.60;;;17.70;99.90;;;;;;5007520;28;20267;-88
2023/10/31 00:26:58;;;;;;;1.60;1.50;;;17.70;99.90;;;;;;5014159;28;20162;-88
2023/10/31 00:29:23;;;;;;;1.73;1.20;;;17.70;99.90;;;;;;5005684;28;20308;-88
2023/10/31 00:31:49;;;;;;;1.57;1.47;;;17.70;99.90;;;;;;4996491;28;20177;-88
2023/10/31 00:34:15;;;;;;;1.63;1.27;;;17.60;99.90;;;;;;5004696;28;20673;-89
2023/10/31 00:36:41;;;;;;;1.67;1.27;;;17.60;99.90;;;;;;5017020;28;20268;-89
2023/10/31 00:39:06;;;;;;;1.50;1.37;;;17.60;99.90;;;;;;5004254;28;20327;-89
2023/10/31 00:41:32;;;;;;;2.07;1.40;;;17.60;99.90;;;;;;5020376;28;20510;-88
2023/10/31 00:43:59;;;;;;;1.50;1.40;;;17.60;99.90;;;;;;5000753;28;20329;-87
2023/10/31 00:46:25;;;;;;;1.50;1.23;;;17.60;99.90;;;;;;5014488;28;20555;-86
2023/10/31 00:48:50;;;;;;;1.60;1.27;;;17.60;99.90;;;;;;5013374;28;20212;-87
2023/10/31 00:51:16;;;;;;;1.50;1.40;;;17.60;99.90;;;;;;5006519;28;20246;-86
2023/10/31 00:53:42;;;;;;;1.30;1.10;;;17.60;99.90;;;;;;4996765;28;20384;-87
2023/10/31 00:56:07;;;;;;;2.13;1.30;;;17.60;99.90;;;;;;5000867;28;20251;-87
2023/10/31 00:58:33;;;;;;;1.40;1.30;;;17.60;99.90;;;;;;5015082;28;20173;-87
2023/10/31 01:00:59;;;;;;;1.30;1.20;;;17.60;99.90;;;;;;5007204;28;20177;-87
2023/10/31 01:03:25;;;;;;;1.30;1.20;;;17.60;99.90;;;;;;4995953;28;20184;-87
2023/10/31 01:05:50;;;;;;;1.50;1.10;;;17.60;99.90;;;;;;5009176;28;20275;-87
2023/10/31 01:08:16;;;;;;;1.20;1.10;;;17.60;99.90;;;;;;4996161;28;20315;-87
2023/10/31 01:10:42;;;;;;;1.97;1.40;;;17.60;99.90;;;;;;4999916;28;20212;-88
2023/10/31 01:13:07;;;;;;;1.20;1.10;;;17.60;99.90;;;;;;5032820;28;20173;-87
2023/10/31 01:15:33;;;;;;;1.40;1.17;;;17.60;99.90;;;;;;5007571;28;20186;-87
2023/10/31 01:17:58;;;;;;;1.27;1.00;;;17.60;99.90;;;;;;5012419;28;20197;-87
2023/10/31 01:20:25;;;;;;;1.50;1.30;;;17.50;99.90;;;;;;5009954;28;20177;-87
2023/10/31 01:22:51;;;;;;;1.37;1.20;;;17.50;99.90;;;;;;5026823;28;20187;-87
2023/10/31 01:25:16;;;;;;;2.63;1.20;;;17.60;99.90;;;;;;5013232;28;20275;-87
2023/10/31 01:27:43;;;;;;;1.33;1.20;;;17.50;99.90;;;;;;5007613;28;20204;-87
2023/10/31 01:30:09;;;;;;;1.10;1.00;;;17.50;99.90;;;;;;5011360;28;20187;-87
2023/10/31 01:32:35;;;;;;;1.10;1.00;;;17.50;99.90;;;;;;5004699;28;20638;-87
2023/10/31 01:35:01;;;;;;;1.10;1.00;;;17.50;99.90;;;;;;5013617;28;20360;-87
2023/10/31 01:37:27;;;;;;;1.53;1.10;;;17.50;99.90;;;;;;5007872;28;20343;-87
2023/10/31 01:39:53;;;;;;;1.20;1.10;;;17.50;99.90;;;;;;4996681;28;20281;-87
2023/10/31 01:42:18;;;;;;;1.20;1.00;;;17.50;99.90;;;;;;5010286;28;20257;-87
2023/10/31 01:44:44;;;;;;;1.13;1.00;;;17.50;99.90;;;;;;4999721;28;20289;-88
2023/10/31 01:47:10;;;;;;;1.00;0.90;;;17.50;99.90;;;;;;5012052;28;20403;-88
2023/10/31 01:49:37;;;;;;;1.30;1.07;;;17.50;99.90;;;;;;4998928;28;20282;-88
2023/10/31 01:52:06;;;;;;;0.90;0.90;;;17.50;99.90;;;;;;5007829;28;20173;-88
2023/10/31 01:54:33;;;;;;;1.27;1.00;;;17.50;99.90;;;;;;5016913;28;20173;-89
2023/10/31 01:57:00;;;;;;;1.90;1.17;;;17.50;99.90;;;;;;5008364;28;20173;-88
2023/10/31 01:59:28;;;;;;;1.07;1.03;;;17.50;99.90;;;;;;5014568;28;20181;-88
2023/10/31 02:01:55;;;;;;;1.13;1.03;;;17.50;99.90;;;;;;5009341;28;20644;-88
2023/10/31 02:04:21;;;;;;;0.97;0.97;;;17.50;99.90;;;;;;5014106;28;20213;-88
2023/10/31 02:06:47;;;;;;;1.47;0.93;;;17.40;99.90;;;;;;5015872;28;20234;-88
2023/10/31 02:09:13;;;;;;;1.20;1.10;;;17.50;99.90;;;;;;5011642;28;20645;-88
2023/10/31 02:11:38;;;;;;;1.80;1.17;;;17.40;99.90;;;;;;5016389;28;20180;-88
2023/10/31 02:14:04;;;;;;;1.20;1.10;;;17.40;99.90;;;;;;5004402;28;20268;-88
2023/10/31 02:16:29;;;;;;;0.90;0.90;;;17.40;99.90;;;;;;5014156;28;20173;-88
2023/10/31 02:18:56;;;;;;;1.13;1.00;;;17.40;99.90;;;;;;5002835;28;20262;-88
2023/10/31 02:21:22;;;;;;;1.20;1.10;;;17.40;99.90;;;;;;5014573;28;20238;-88
2023/10/31 02:23:58;;;;;;;1.13;1.03;;;17.40;99.90;;;;;;5008675;28;20834;-88
2023/10/31 02:26:31;;;;;;;1.17;1.03;;;17.40;99.90;;;;;;4996131;28;20193;-88
2023/10/31 02:28:58;;;;;;;1.13;1.03;;;17.40;99.90;;;;;;5021541;28;20290;-88
2023/10/31 02:31:23;;;;;;;1.43;1.00;;;17.40;99.90;;;;;;5017883;28;20177;-87
2023/10/31 02:33:49;;;;;;;1.50;1.10;;;17.40;99.90;;;;;;5005526;28;20235;-88
2023/10/31 02:36:15;;;;;;;1.30;1.00;;;17.40;99.90;;;;;;5017316;28;20483;-88
2023/10/31 02:38:41;;;;;;;1.00;0.90;;;17.40;99.90;;;;;;5005901;28;20185;-87
2023/10/31 02:41:06;;;;;;;0.90;0.90;;;17.40;99.90;;;;;;5016324;28;20486;-87
2023/10/31 02:43:32;;;;;;;1.10;1.00;;;17.40;99.90;;;;;;5008309;28;20351;-87
2023/10/31 02:45:58;;;;;;;0.90;0.90;;;17.40;99.90;;;;;;5014346;28;20211;-87
2023/10/31 02:48:24;;;;;;;0.90;0.90;;;17.40;99.90;;;;;;5008627;28;20579;-88
2023/10/31 02:50:51;;;;;;;1.00;0.90;;;17.40;99.90;;;;;;5007225;28;20212;-87
2023/10/31 02:53:18;;;;;;;2.80;1.10;;;17.40;99.90;;;;;;5008250;28;20424;-88
2023/10/31 02:55:44;;;;;;;1.80;0.90;;;17.40;99.90;;;;;;5006304;28;20395;-89
2023/10/31 02:58:10;;;;;;;1.30;0.90;;;17.40;99.90;;;;;;5010493;28;20694;-89
2023/10/31 03:00:36;;;;;;;1.07;0.97;;;17.30;99.90;;;;;;5004924;28;20231;-88
2023/10/31 03:03:02;;;;;;;1.10;1.00;;;17.40;99.90;;;;;;4997193;28;20181;-89
2023/10/31 03:05:29;;;;;;;1.20;1.00;;;17.40;99.90;;;;;;5004217;28;20173;-89
2023/10/31 03:07:55;;;;;;;1.03;1.00;;;17.30;99.90;;;;;;5014848;28;20208;-89
2023/10/31 03:10:21;;;;;;;0.97;0.90;;;17.40;99.90;;;;;;5025450;28;20540;-88
2023/10/31 03:12:47;;;;;;;1.10;1.00;;;17.30;99.90;;;;;;4997154;28;20174;-89
2023/10/31 03:15:13;;;;;;;1.03;0.93;;;17.30;99.90;;;;;;5008577;28;20299;-89
2023/10/31 03:17:38;;;;;;;1.20;1.10;;;17.30;99.90;;;;;;4997227;28;20183;-88
2023/10/31 03:20:05;;;;;;;1.10;1.00;;;17.30;99.90;;;;;;5000662;28;20467;-88
2023/10/31 03:22:30;;;;;;;1.10;0.90;;;17.30;99.90;;;;;;4996901;28;20435;-89
2023/10/31 03:24:57;;;;;;;1.30;1.00;;;17.30;99.90;;;;;;5006319;28;20175;-89
2023/10/31 03:27:23;;;;;;;0.90;0.90;;;17.30;99.90;;;;;;5001067;28;20188;-89
2023/10/31 03:29:48;;;;;;;1.00;0.90;;;17.30;99.90;;;;;;5022310;28;20164;-89
2023/10/31 03:32:15;;;;;;;1.00;0.90;;;17.30;99.90;;;;;;5003979;28;20202;-89
2023/10/31 03:34:41;;;;;;;1.10;1.00;;;17.30;99.90;;;;;;5018546;28;20545;-89
2023/10/31 03:37:07;;;;;;;1.13;1.00;;;17.30;99.90;;;;;;5005503;28;20397;-89
2023/10/31 03:39:33;;;;;;;0.80;0.80;;;17.30;99.90;;;;;;5000193;28;20509;-88
2023/10/31 03:42:00;;;;;;;1.33;1.23;;;17.30;99.90;;;;;;5008292;28;20269;-89
2023/10/31 03:44:25;;;;;;;1.10;1.00;;;17.30;99.90;;;;;;4998712;28;20194;-89
2023/10/31 03:46:51;;;;;;;0.97;0.90;;;17.30;99.90;;;;;;5026525;28;20283;-88
2023/10/31 03:49:17;;;;;;;1.60;0.97;;;17.30;99.90;;;;;;4998634;28;20201;-88
2023/10/31 03:51:43;;;;;;;1.13;0.93;;;17.30;99.90;;;;;;5008447;28;20170;-89
2023/10/31 03:54:08;;;;;;;0.80;0.80;;;17.30;99.90;;;;;;4997581;28;20280;-89
2023/10/31 03:56:42;;;;;;;0.80;0.80;;;17.30;99.90;;;;;;5002628;28;20579;-89
2023/10/31 03:59:08;;;;;;;1.00;0.90;;;17.30;99.90;;;;;;5017621;28;20177;-88
2023/10/31 04:01:34;;;;;;;1.20;1.10;;;17.30;99.90;;;;;;5020807;28;20232;-89
2023/10/31 04:03:59;;;;;;;0.83;0.77;;;17.30;99.90;;;;;;5016190;28;20181;-89
2023/10/31 04:06:25;;;;;;;1.13;0.90;;;17.30;99.90;;;;;;5006794;28;20272;-88
2023/10/31 04:08:51;;;;;;;1.20;1.00;;;17.30;99.90;;;;;;5015641;28;20314;-89
2023/10/31 04:11:16;;;;;;;1.00;1.00;;;17.30;99.90;;;;;;5026734;28;20179;-88
2023/10/31 04:13:42;;;;;;;1.10;1.00;;;17.30;99.90;;;;;;5012570;28;20176;-88
2023/10/31 04:16:08;;;;;;;1.17;1.00;;;17.30;99.90;;;;;;5012788;28;20231;-88
2023/10/31 04:18:34;;;;;;;1.23;1.00;;;17.30;99.90;;;;;;5005712;28;20177;-88
2023/10/31 04:20:59;;;;;;;1.10;1.00;;;17.30;99.90;;;;;;5000541;28;20242;-88
2023/10/31 04:23:25;;;;;;;1.23;1.00;;;17.30;99.90;;;;;;5007753;28;20177;-87
2023/10/31 04:25:52;;;;;;;1.10;1.00;;;17.30;99.90;;;;;;4999421;28;20177;-88
2023/10/31 04:28:19;;;;;;;1.23;0.93;;;17.30;99.90;;;;;;5007656;28;20209;-88
2023/10/31 04:30:44;;;;;;;0.97;0.90;;;17.30;99.90;;;;;;5014743;28;20169;-88
2023/10/31 04:33:10;;;;;;;1.20;0.93;;;17.30;99.90;;;;;;5007709;28;20181;-88
2023/10/31 04:35:36;;;;;;;1.17;1.00;;;17.20;99.90;;;;;;5013926;28;20448;-88
2023/10/31 04:38:02;;;;;;;2.10;1.20;;;17.20;99.90;;;;;;5008262;28;20172;-88
2023/10/31 04:40:28;;;;;;;2.30;1.10;;;17.20;99.90;;;;;;4997100;28;20185;-88
2023/10/31 04:42:54;;;;;;;1.33;1.10;;;17.30;99.90;;;;;;5007273;28;20183;-88
2023/10/31 04:45:20;;;;;;;1.53;1.20;;;17.20;99.90;;;;;;4997970;28;20590;-89
2023/10/31 04:47:46;;;;;;;1.90;1.10;;;17.20;99.90;;;;;;5006917;28;20244;-88
2023/10/31 04:50:11;;;;;;;1.30;1.20;;;17.20;99.90;;;;;;4999402;28;20268;-88
2023/10/31 04:52:37;;;;;;;2.37;1.07;;;17.20;99.90;;;;;;5004648;28;20514;-89
2023/10/31 04:55:03;;;;;;;2.00;1.20;;;17.20;99.90;;;;;;5002701;28;20211;-88
2023/10/31 04:57:29;;;;;;;3.00;1.20;;;17.20;99.90;;;;;;5018452;28;20176;-89
2023/10/31 04:59:55;;;;;;;2.37;1.33;;;17.20;99.90;;;;;;5002263;28;20630;-86
2023/10/31 05:02:24;;;;;;;1.93;1.30;;;17.20;99.90;;;;;;4998353;28;20204;-86
2023/10/31 05:04:50;;;;;;;1.70;1.20;;;17.20;99.90;;;;;;5004293;28;20515;-86
2023/10/31 05:07:17;;;;;;;2.67;1.23;;;17.20;99.90;;;;;;5013145;28;20181;-86
2023/10/31 05:09:43;;;;;;;2.07;1.20;;;17.20;99.90;;;;;;5003757;28;20492;-86
2023/10/31 05:12:09;;;;;;;2.73;1.40;;;17.20;99.90;;;;;;5012039;28;20230;-86
2023/10/31 05:14:35;;;;;;;1.53;1.30;;;17.20;99.90;;;;;;5009456;28;20508;-86
2023/10/31 05:17:01;;;;;;;2.07;1.20;;;17.20;99.90;;;;;;4997870;28;20188;-86
2023/10/31 05:19:26;;;;;;;2.07;1.20;;;17.20;99.90;;;;;;5027526;28;20181;-88
2023/10/31 05:21:52;;;;;;;2.77;1.30;;;17.20;99.90;;;;;;4998785;28;20188;-87
2023/10/31 05:24:18;;;;;;;2.20;1.30;;;17.20;99.90;;;;;;5009745;28;20180;-87
2023/10/31 05:26:44;;;;;;;2.93;1.50;;;17.20;99.90;;;;;;4997942;28;20420;-88
2023/10/31 05:29:11;;;;;;;3.33;1.50;;;17.20;99.90;;;;;;5000407;28;20507;-88
2023/10/31 05:31:36;;;;;;;1.97;1.23;;;17.20;99.90;;;;;;5012553;28;20165;-87
2023/10/31 05:34:03;;;;;;;3.07;1.20;;;17.20;99.90;;;;;;5005816;28;20179;-88
2023/10/31 05:36:29;;;;;;;2.33;1.30;;;17.20;99.90;;;;;;5026018;28;20201;-86
2023/10/31 05:38:55;;;;;;;2.73;1.27;;;17.20;99.90;;;;;;5007049;28;20504;-87
2023/10/31 05:41:21;;;;;;;2.53;1.30;;;17.20;99.90;;;;;;5025901;28;20246;-87
2023/10/31 05:43:47;;;;;;;1.37;1.13;;;17.20;99.90;;;;;;5010344;28;20207;-88
2023/10/31 05:46:14;;;;;;;1.67;1.30;;;17.20;99.90;;;;;;5003310;28;20189;-87
2023/10/31 05:48:41;;;;;;;5.83;1.60;;;17.20;99.90;;;;;;4995371;28;20227;-87
2023/10/31 05:51:15;;;;;;;2.90;1.33;;;17.20;99.90;;;;;;5005582;28;20172;-88
2023/10/31 05:53:43;;;;;;;3.33;1.43;;;17.20;99.90;;;;;;4995613;28;20417;-88
2023/10/31 05:56:09;;;;;;;2.53;1.30;;;17.20;99.90;;;;;;5002639;28;20165;-87
2023/10/31 05:58:37;;;;;;;3.30;1.40;;;17.20;99.90;;;;;;5013594;28;20343;-88
2023/10/31 06:01:03;;;;;;;4.47;1.30;;;17.20;99.90;;;;;;5023812;28;20173;-88
2023/10/31 06:03:29;;;;;;;4.00;1.33;;;17.20;99.90;;;;;;4994108;28;20174;-88
2023/10/31 06:05:54;;;;;;;1.50;1.20;;;17.20;99.90;;;;;;5024874;28;20231;-88
2023/10/31 06:08:20;;;;;;;3.87;1.20;;;17.20;99.90;;;;;;4997828;28;20559;-89
2023/10/31 06:10:46;;;;;;;1.50;1.13;;;17.20;99.90;;;;;;5023959;28;20164;-89
2023/10/31 06:13:11;;;;;;;2.53;1.33;;;17.20;99.90;;;;;;4993868;28;20184;-88
2023/10/31 06:15:37;;;;;;;4.70;1.30;;;17.30;99.90;;;;;;5001905;28;20216;-88
2023/10/31 06:18:03;;;;;;;1.97;1.10;;;17.30;99.90;;;;;;4994730;28;20632;-88
2023/10/31 06:20:29;;;;;;;2.90;1.40;;;17.30;99.90;;;;;;5013312;28;20183;-89
2023/10/31 06:22:55;;;;;;;3.00;1.50;;;17.30;99.90;;;;;;4996528;28;20181;-89
2023/10/31 06:25:21;;;;;;;2.97;1.37;;;17.30;99.90;;;;;;5011180;28;20188;-88
2023/10/31 06:27:46;;;;;;;2.07;1.47;;;17.30;99.90;;;;;;4997277;28;20627;-88
2023/10/31 06:30:12;;;;;;;5.57;1.20;;;17.30;99.90;;;;;;4991180;28;20180;-88
2023/10/31 06:32:40;;;;;;;1.63;1.20;;;17.30;99.90;;;;;;5000889;28;20192;-88
2023/10/31 06:35:06;;;;;;;1.87;1.57;;;17.30;99.90;;;;;;5010195;28;20614;-88
2023/10/31 06:37:32;;;;;;;3.30;1.40;;;17.30;99.90;;;;;;5002356;28;20362;-88
2023/10/31 06:39:58;;;;;;;2.17;1.20;;;17.30;99.90;;;;;;4992417;28;20185;-88
2023/10/31 06:42:24;;;;;;;3.83;1.60;;;17.30;99.90;;;;;;5004736;28;20450;-88
2023/10/31 06:44:50;;;;;;;2.70;1.40;;;17.30;99.90;;;;;;4991091;28;20169;-88
2023/10/31 06:47:15;;;;;;;1.80;1.40;;;17.30;99.90;;;;;;5022829;28;20370;-88
2023/10/31 06:49:42;;;;;;;2.43;1.40;;;17.30;99.90;;;;;;5005187;28;20202;-88
2023/10/31 06:52:08;;;;;;;1.77;1.50;;;17.30;99.90;;;;;;5000386;28;20161;-89
2023/10/31 06:54:34;;;;;;;1.90;1.50;;;17.30;99.90;;;;;;4988342;28;20170;-89
2023/10/31 06:57:01;;;;;;;2.33;1.20;;;17.30;99.90;;;;;;4996943;28;20165;-89
2023/10/31 06:59:29;;;;;;;3.33;1.43;;;17.20;99.90;;;;;;4989993;28;20188;-89
2023/10/31 07:01:56;;;;;;;3.10;1.50;;;17.30;99.90;;;;;;4997446;28;20286;-89
2023/10/31 07:04:22;;;;;;;6.80;1.40;;;17.30;99.90;;;;;;4992239;28;20208;-89
2023/10/31 07:06:48;;;;;;;2.00;1.40;;;17.20;99.90;;;;;;4992734;28;20177;-89
2023/10/31 07:09:14;;;;;;;1.93;1.47;;;17.30;99.90;;;;;;4996877;28;20219;-89
2023/10/31 07:11:40;;;;;;;1.67;1.33;;;17.30;99.90;;;;;;4993834;28;20578;-89
2023/10/31 07:14:06;;;;;;;3.13;1.50;;;17.30;99.90;;;;;;4999057;28;20465;-89
2023/10/31 07:16:32;;;;;;;1.67;1.57;;;17.30;99.90;;;;;;5022955;28;20256;-89
2023/10/31 07:18:58;;;;;;;2.93;1.60;;;17.20;99.90;;;;;;5007927;28;20688;-89
2023/10/31 07:21:26;;;;;;;1.70;1.43;;;17.30;99.90;;;;;;5008537;28;20577;-89
2023/10/31 07:23:51;;;;;;;1.70;1.50;;;17.30;99.90;;;;;;5001949;28;20433;-89
2023/10/31 07:26:17;;;;;;;1.40;1.30;;;17.20;99.90;;;;;;4984242;28;20178;-89
2023/10/31 07:28:43;;;;;;;2.07;1.30;;;17.30;99.90;;;;;;5016199;28;20200;-89
2023/10/31 07:31:09;;;;;;;1.50;1.40;;;17.20;99.90;;;;;;5023109;28;20607;-89
2023/10/31 07:33:34;;;;;;;1.50;1.40;;;17.20;99.90;;;;;;5007846;28;20653;-89
2023/10/31 07:36:00;;;;;;;1.50;1.40;;;17.30;99.90;;;;;;5005063;28;20287;-89
2023/10/31 07:38:26;;;;;;;1.77;1.37;;;17.30;99.90;;;;;;4997735;28;20185;-89
2023/10/31 07:40:51;;;;;;;2.90;1.50;;;17.30;99.90;;;;;;5003098;28;20169;-89
2023/10/31 07:43:17;;;;;;;1.70;1.43;;;17.30;99.90;;;;;;5002328;28;20524;-89
2023/10/31 07:45:43;;;;;;;1.40;1.30;;;17.30;99.90;;;;;;5022970;28;20183;-89
2023/10/31 07:48:09;;;;;;;1.40;1.30;;;17.20;99.90;;;;;;5024141;28;20200;-89
2023/10/31 07:50:35;;;;;;;1.40;1.30;;;17.20;99.90;;;;;;4998270;28;20184;-89
2023/10/31 07:53:00;;;;;;;2.03;1.27;;;17.20;99.90;;;;;;4990579;28;20165;-88
2023/10/31 07:55:26;;;;;;;1.63;1.30;;;17.30;99.90;;;;;;4998914;28;20349;-89
2023/10/31 07:57:52;;;;;;;1.70;1.30;;;17.20;99.90;;;;;;4986274;28;20172;-89
2023/10/31 08:00:17;;;;;;;1.80;1.27;;;17.20;99.90;;;;;;4996194;28;20176;-89
2023/10/31 08:02:43;;;;;;;3.80;1.30;;;17.30;99.90;;;;;;4983795;28;20185;-90
2023/10/31 08:05:10;;;;;;;1.57;1.43;;;17.20;99.90;;;;;;4996216;28;20170;-89
2023/10/31 08:07:36;;;;;;;1.47;1.13;;;17.20;99.90;;;;;;4985075;28;20664;-89
2023/10/31 08:10:03;;;;;;;2.30;1.50;;;17.20;99.90;;;;;;4996487;28;20197;-89
2023/10/31 08:12:29;;;;;;;3.07;1.57;;;17.20;99.90;;;;;;5006351;28;20343;-89
2023/10/31 08:14:55;;;;;;;2.97;1.30;;;17.20;99.90;;;;;;5004972;28;20189;-88
2023/10/31 08:17:21;;;;;;;1.50;1.37;;;17.20;99.90;;;;;;4987963;28;20193;-88
2023/10/31 08:19:48;;;;;;;2.57;1.43;;;17.20;99.90;;;;;;4995883;28;20201;-89
2023/10/31 08:22:13;;;;;;;2.13;1.20;;;17.20;99.90;;;;;;5006940;28;20208;-88
2023/10/31 08:24:39;;;;;;;1.77;1.27;;;17.20;99.90;;;;;;5013077;28;20197;-89
2023/10/31 08:27:05;;;;;;;1.90;1.40;;;17.20;99.90;;;;;;5008590;28;20173;-87
2023/10/31 08:29:31;;;;;;;1.33;1.23;;;17.20;99.90;;;;;;4991053;28;20200;-87
2023/10/31 08:31:57;;;;;;;1.77;1.50;;;17.20;99.90;;;;;;5012013;28;20328;-87
2023/10/31 08:34:23;;;;;;;1.60;1.37;;;17.30;99.90;;;;;;4989069;28;20463;-87
2023/10/31 08:36:48;;;;;;;1.57;1.37;;;17.20;99.90;;;;;;5013136;28;20170;-88
2023/10/31 08:39:14;;;;;;;2.60;1.50;;;17.30;99.90;;;;;;4986175;28;20208;-88
2023/10/31 08:41:59;;;;;;;1.50;1.40;;;17.30;99.90;;;;;;4996975;28;20173;-87
2023/10/31 08:44:25;;;;;;;1.50;1.40;;;17.30;99.90;;;;;;4985762;28;20574;-88
2023/10/31 08:46:51;;;;;;;1.70;1.40;;;17.30;99.90;;;;;;4995920;28;20434;-88
2023/10/31 08:49:17;;;;;;;2.70;1.47;;;17.30;99.90;;;;;;4984281;28;20204;-88
2023/10/31 08:51:43;;;;;;;3.40;1.50;;;17.30;99.90;;;;;;5003900;28;20287;-87
2023/10/31 08:54:09;;;;;;;4.83;1.40;;;17.30;99.90;;;;;;5007627;28;20637;-87
2023/10/31 08:56:35;;;;;;;2.03;1.40;;;17.30;99.90;;;;;;4996008;28;20169;-88
2023/10/31 08:59:01;;;;;;;3.87;1.43;;;17.30;99.90;;;;;;5009783;28;20348;-88
2023/10/31 09:01:28;;;;;;;2.13;1.30;;;17.30;99.90;;;;;;4996412;28;20523;-88
2023/10/31 09:03:53;;;;;;;2.73;1.40;;;17.30;99.90;;;;;;5009477;28;20243;-88
2023/10/31 09:06:19;;;;;;;2.50;1.67;;;17.30;99.90;;;;;;5018482;28;20186;-88
2023/10/31 09:08:46;;;;;;;2.20;1.50;;;17.30;99.90;;;;;;5007400;28;20292;-88
2023/10/31 09:11:11;;;;;;;1.80;1.40;;;17.30;99.90;;;;;;5001505;28;20506;-88
2023/10/31 09:13:37;;;;;;;1.97;1.50;;;17.30;99.90;;;;;;5003748;28;20184;-88
2023/10/31 09:16:03;;;;;;;1.47;1.23;;;17.30;99.90;;;;;;5002579;28;20577;-88
2023/10/31 09:18:29;;;;;;;2.60;1.37;;;17.30;99.90;;;;;;4997715;28;20177;-88
2023/10/31 09:20:55;;;;;;;2.63;1.30;;;17.30;99.90;;;;;;4991525;28;20208;-88
2023/10/31 09:23:20;;;;;;;3.27;1.50;;;17.40;99.90;;;;;;5015508;28;20247;-88
2023/10/31 09:25:46;;;;;;;1.83;1.30;;;17.40;99.90;;;;;;5023572;28;20264;-88
2023/10/31 09:28:12;;;;;;;2.77;1.40;;;17.40;99.90;;;;;;4997305;28;20625;-88
2023/10/31 09:30:38;;;;;;;2.67;1.50;;;17.40;99.90;;;;;;5009354;28;20351;-89
2023/10/31 09:33:03;;;;;;;1.73;1.37;;;17.40;99.90;;;;;;4994399;28;20276;-88
2023/10/31 09:35:29;;;;;;;1.93;1.33;;;17.30;99.90;;;;;;5008115;28;20579;-88
2023/10/31 09:37:55;;;;;;;2.63;1.63;;;17.40;99.90;;;;;;4995768;28;20173;-88
2023/10/31 09:40:22;;;;;;;2.40;1.40;;;17.40;99.90;;;;;;5008739;28;20334;-88
2023/10/31 09:42:49;;;;;;;2.40;1.20;;;17.40;99.90;;;;;;5021805;28;20201;-88
2023/10/31 09:45:15;;;;;;;1.77;1.60;;;17.40;99.90;;;;;;4989782;28;20166;-89
2023/10/31 09:47:44;;;;;;;2.30;1.37;;;17.40;99.90;;;;;;5000680;28;20177;-88
2023/10/31 09:50:10;;;;;;;1.80;1.40;;;17.40;99.90;;;;;;4991406;28;20182;-88
2023/10/31 09:52:37;;;;;;;2.37;1.37;;;17.40;99.90;;;;;;4996226;28;20165;-88
2023/10/31 09:55:03;;;;;;;2.50;1.30;;;17.40;99.90;;;;;;4993061;28;20200;-88
2023/10/31 09:57:29;;;;;;;1.97;1.23;;;17.40;99.90;;;;;;4987826;28;20488;-88
2023/10/31 09:59:55;;;;;;;1.60;1.40;;;17.40;99.90;;;;;;4998264;28;20177;-88
2023/10/31 10:02:20;;;;;;;1.60;1.37;;;17.40;99.90;;;;;;5003114;28;20505;-88
2023/10/31 10:04:48;;;;;;;2.20;1.40;;;17.40;99.90;;;;;;4994683;28;20464;-89
2023/10/31 10:07:19;;;;;;;4.30;1.23;;;17.40;99.90;;;;;;5003316;28;20185;-88
2023/10/31 10:09:46;;;;;;;1.70;1.30;;;17.40;99.90;;;;;;4998341;28;20490;-88
2023/10/31 10:12:13;;;;;;;1.40;1.30;;;17.40;99.90;;;;;;4989797;28;20273;-89
2023/10/31 10:14:39;;;;;;;1.47;1.23;;;17.40;99.90;;;;;;5001047;28;20417;-89
2023/10/31 10:17:16;;;;;;;1.50;1.20;;;17.40;99.90;;;;;;4988387;28;20184;-88
2023/10/31 10:19:41;;;;;;;2.83;1.43;;;17.40;99.90;;;;;;5002973;28;20505;-88
2023/10/31 10:22:07;;;;;;;1.90;1.27;;;17.40;99.90;;;;;;4989780;28;20265;-88
2023/10/31 10:24:35;;;;;;;2.47;1.50;;;17.40;99.90;;;;;;5002194;28;20211;-88
2023/10/31 10:27:00;;;;;;;2.60;1.37;;;17.40;99.90;;;;;;4988974;28;20192;-89
2023/10/31 10:29:26;;;;;;;2.30;1.23;;;17.40;99.90;;;;;;5002391;28;20207;-89
2023/10/31 10:31:52;;;;;;;1.97;1.30;;;17.40;99.90;;;;;;5005914;28;20750;-89
2023/10/31 10:34:17;;;;;;;2.00;1.53;;;17.40;99.90;;;;;;5015747;28;20335;-88
2023/10/31 10:36:49;;;;;;;1.80;1.30;;;17.40;99.90;;;;;;5008320;28;20191;-88
2023/10/31 10:39:20;;;;;;;2.03;1.37;;;17.40;99.90;;;;;;4991939;28;20169;-88
2023/10/31 10:41:51;;;;;;;2.87;1.40;;;17.40;99.90;;;;;;5004541;28;20301;-89
2023/10/31 10:44:18;;;;;;;1.40;1.30;;;17.40;99.90;;;;;;5001613;28;20430;-89
2023/10/31 10:46:50;;;;;;;1.60;1.33;;;17.40;99.90;;;;;;5003391;28;20173;-89
2023/10/31 10:49:16;;;;;;;1.43;1.30;;;17.40;99.90;;;;;;5003890;28;20205;-88
2023/10/31 10:52:28;;;;;;;2.50;1.40;;;17.40;99.90;;;;;;5001710;28;20169;-89
2023/10/31 10:55:06;;;;;;;1.20;1.10;;;17.40;99.90;;;;;;4980003;28;20410;-89
2023/10/31 10:57:38;;;;;;;1.60;1.50;;;17.40;99.90;;;;;;5007869;28;20631;-89
2023/10/31 11:00:08;;;;;;;1.43;1.33;;;17.40;99.90;;;;;;4999504;28;20469;-89
2023/10/31 11:02:36;;;;;;;1.23;1.13;;;17.40;99.90;;;;;;5006214;28;20428;-89
2023/10/31 11:05:07;;;;;;;1.43;1.10;;;17.40;99.90;;;;;;5002580;28;20379;-89
2023/10/31 11:07:35;;;;;;;2.37;1.40;;;17.40;99.90;;;;;;4990336;28;20424;-89
2023/10/31 11:10:02;;;;;;;1.40;1.30;;;17.40;99.90;;;;;;4999270;28;20277;-89
2023/10/31 11:12:30;;;;;;;2.20;1.47;;;17.40;99.90;;;;;;4990281;28;20481;-89
2023/10/31 11:14:58;;;;;;;1.30;1.20;;;17.40;99.90;;;;;;4990978;28;20425;-89
2023/10/31 11:17:27;;;;;;;1.83;1.33;;;17.40;99.90;;;;;;5007537;28;20303;-89
2023/10/31 11:19:54;;;;;;;1.50;1.40;;;17.40;99.90;;;;;;5006729;28;20170;-89
2023/10/31 11:22:20;;;;;;;1.47;1.37;;;17.40;99.90;;;;;;4998798;28;20184;-89
2023/10/31 11:24:45;;;;;;;1.20;1.10;;;17.40;99.90;;;;;;5007588;28;20178;-89
2023/10/31 11:27:11;;;;;;;1.40;1.30;;;17.40;99.90;;;;;;5001788;28;20181;-89
2023/10/31 11:29:37;;;;;;;2.27;1.40;;;17.40;99.90;;;;;;4988733;28;20259;-89
2023/10/31 11:32:03;;;;;;;1.50;1.37;;;17.40;99.90;;;;;;5016291;28;20193;-89
2023/10/31 11:34:32;;;;;;;1.57;1.40;;;17.40;99.90;;;;;;5010378;28;20287;-89
2023/10/31 11:37:23;;;;;;;1.37;1.27;;;17.40;99.90;;;;;;5015301;28;20173;-89
2023/10/31 11:40:14;;;;;;;1.57;1.30;;;17.40;99.90;;;;;;5011270;28;20377;-89
2023/10/31 11:42:46;;;;;;;2.57;1.50;;;17.50;99.90;;;;;;4998938;28;20544;-89
2023/10/31 11:45:12;;;;;;;1.90;1.30;;;17.40;99.90;;;;;;5008024;28;20212;-89
2023/10/31 11:47:48;;;;;;;1.50;1.30;;;17.40;99.90;;;;;;5014462;28;20219;-89
2023/10/31 11:50:13;;;;;;;2.47;1.60;;;17.50;99.90;;;;;;5009137;28;20293;-89
2023/10/31 11:52:39;;;;;;;2.43;1.57;;;17.40;99.90;;;;;;4995831;28;20235;-89
2023/10/31 11:55:12;;;;;;;2.90;1.40;;;17.50;99.90;;;;;;5008726;28;20169;-89
2023/10/31 11:57:41;;;;;;;2.50;1.63;;;17.50;99.90;;;;;;4996709;28;20180;-89
2023/10/31 12:00:19;;;;;;;2.73;1.50;;;17.50;99.90;;;;;;5009213;28;20174;-89
2023/10/31 12:03:01;;;;;;;3.20;1.50;;;17.50;99.90;;;;;;5002722;28;20274;-90
2023/10/31 12:05:27;;;;;;;2.00;1.50;;;17.50;99.90;;;;;;4987874;28;20205;-89
2023/10/31 12:07:53;;;;;;;1.90;1.50;;;17.50;99.90;;;;;;4998718;28;20788;-89
2023/10/31 12:10:32;;;;;;;3.27;1.57;;;17.50;99.90;;;;;;4987091;28;20285;-89
2023/10/31 12:12:58;;;;;;;3.37;1.60;;;17.50;99.90;;;;;;5004677;28;20200;-88
2023/10/31 12:15:25;;;;;;;1.67;1.40;;;17.50;99.90;;;;;;5024325;28;20233;-89
2023/10/31 12:17:51;;;;;;;4.27;1.50;;;17.50;99.90;;;;;;5003579;28;20169;-90
2023/10/31 12:20:17;;;;;;;2.27;1.70;;;17.50;99.90;;;;;;4988488;28;20268;-89
2023/10/31 12:22:43;;;;;;;2.57;1.90;;;17.60;99.90;;;;;;4992905;28;20176;-90
2023/10/31 12:25:10;;;;;;;4.77;1.80;;;17.60;99.90;;;;;;4989816;28;20177;-89
2023/10/31 12:27:49;;;;;;;3.83;1.80;;;17.60;99.90;;;;;;5009279;28;20167;-90
2023/10/31 12:30:22;;;;;;;4.60;1.67;;;17.50;99.90;;;;;;4989426;28;20174;-89
2023/10/31 12:32:57;;;;;;;1.90;1.30;;;17.60;99.90;;;;;;4989736;28;20169;-89
2023/10/31 12:35:24;;;;;;;2.40;1.57;;;17.60;99.90;;;;;;4988324;28;20195;-89
2023/10/31 12:37:54;;;;;;;3.13;1.80;;;17.60;99.90;;;;;;5007344;28;20258;-90
2023/10/31 12:40:21;;;;;;;3.90;1.80;;;17.60;99.90;;;;;;4991636;28;20270;-89
2023/10/31 12:42:49;;;;;;;3.97;1.77;;;17.60;99.90;;;;;;4989529;28;20247;-89
2023/10/31 12:45:17;;;;;;;2.60;1.60;;;17.60;99.90;;;;;;4993131;28;20220;-89